createdAt,value
2018-03-11T00:00:12.741Z,16.55
2018-03-11T00:00:54.414Z,20.02
2018-03-11T00:01:28.840Z,18.17
2018-03-11T00:02:02.725Z,19.45
2018-03-11T00:02:36.582Z,17.50
2018-03-11T00:03:10.429Z,19.60
2018-03-11T00:03:44.480Z,18.20
2018-03-11T00:04:18.461Z,18.25
2018-03-11T00:04:55.624Z,17.35
2018-03-11T00:05:30.261Z,16.52
2018-03-11T00:06:04.387Z,17.70
2018-03-11T00:06:38.493Z,17.70
2018-03-11T00:07:12.662Z,18.10
2018-03-11T00:07:46.559Z,17.40
2018-03-11T00:08:20.449Z,19.23
2018-03-11T00:08:54.341Z,19.80
2018-03-11T00:09:28.255Z,16.70
2018-03-11T00:10:02.117Z,18.50
2018-03-11T00:10:35.972Z,16.20
2018-03-11T00:11:09.835Z,17.35
2018-03-11T00:11:43.689Z,16.08
2018-03-11T00:12:18.513Z,16.67
2018-03-11T00:12:52.393Z,17.05
2018-03-11T00:13:26.373Z,21.85
2018-03-11T00:14:00.258Z,16.50
2018-03-11T00:14:34.694Z,20.90
2018-03-11T00:15:08.758Z,15.90
2018-03-11T00:15:42.656Z,17.70
2018-03-11T00:16:16.598Z,18.33
2018-03-11T00:16:50.472Z,16.00
2018-03-11T00:17:24.348Z,17.73
2018-03-11T00:17:58.225Z,17.55
2018-03-11T00:18:32.118Z,16.62
2018-03-11T00:19:06.003Z,17.62
2018-03-11T00:19:39.975Z,18.02
2018-03-11T00:20:13.921Z,16.87
2018-03-11T00:20:47.994Z,17.92
2018-03-11T00:21:22.056Z,17.90
2018-03-11T00:21:55.908Z,17.10
2018-03-11T00:22:29.779Z,17.75
2018-03-11T00:23:03.691Z,19.37
2018-03-11T00:23:37.588Z,17.45
2018-03-11T00:24:11.469Z,16.45
2018-03-11T00:24:45.493Z,17.73
2018-03-11T00:25:19.448Z,19.27
2018-03-11T00:25:53.425Z,19.10
2018-03-11T00:26:27.364Z,18.02
2018-03-11T00:27:01.243Z,20.15
2018-03-11T00:27:35.102Z,18.37
2018-03-11T00:28:09.940Z,16.35
2018-03-11T00:28:43.867Z,16.48
2018-03-11T00:29:17.904Z,16.10
2018-03-11T00:29:52.112Z,18.10
2018-03-11T00:30:27.515Z,20.17
2018-03-11T00:31:01.620Z,18.27
2018-03-11T00:31:35.688Z,16.87
2018-03-11T00:32:10.680Z,17.75
2018-03-11T00:32:44.618Z,18.42
2018-03-11T00:33:18.499Z,16.12
2018-03-11T00:33:52.397Z,18.98
2018-03-11T00:34:26.260Z,16.27
2018-03-11T00:35:00.157Z,18.10
2018-03-11T00:35:34.047Z,18.75
2018-03-11T00:36:08.261Z,17.20
2018-03-11T00:36:42.156Z,17.55
2018-03-11T00:37:16.029Z,16.90
2018-03-11T00:37:49.912Z,17.05
2018-03-11T00:38:26.462Z,17.87
2018-03-11T00:39:00.326Z,19.45
2018-03-11T00:39:35.516Z,18.40
2018-03-11T00:40:09.450Z,16.80
2018-03-11T00:40:44.499Z,20.55
2018-03-11T00:41:18.673Z,20.10
2018-03-11T00:41:52.725Z,19.95
2018-03-11T00:42:26.650Z,20.33
2018-03-11T00:43:00.513Z,20.45
2018-03-11T00:43:34.381Z,18.40
2018-03-11T00:44:08.277Z,15.02
2018-03-11T00:44:42.144Z,16.40
2018-03-11T00:45:16.031Z,18.92
2018-03-11T00:45:49.920Z,18.50
2018-03-11T00:46:23.813Z,20.65
2018-03-11T00:46:57.677Z,18.45
2018-03-11T00:47:31.568Z,21.62
2018-03-11T00:48:05.498Z,20.60
2018-03-11T00:48:39.457Z,15.70
2018-03-11T00:49:13.324Z,19.08
2018-03-11T00:49:47.378Z,16.87
2018-03-11T00:50:21.301Z,19.58
2018-03-11T00:50:55.176Z,19.80
2018-03-11T00:51:29.064Z,17.23
2018-03-11T00:52:03.540Z,20.08
2018-03-11T00:52:38.256Z,16.20
2018-03-11T00:53:12.131Z,19.67
2018-03-11T00:53:46.763Z,17.87
2018-03-11T00:54:20.643Z,16.65
2018-03-11T00:54:54.509Z,17.40
2018-03-11T00:55:28.420Z,20.25
2018-03-11T00:56:02.468Z,16.08
2018-03-11T00:56:36.448Z,16.98
2018-03-11T00:57:10.341Z,15.75
2018-03-11T00:57:44.416Z,17.52
2018-03-11T00:58:18.302Z,17.92
2018-03-11T00:58:52.665Z,15.82
2018-03-11T00:59:26.588Z,17.52
2018-03-11T01:00:00.456Z,17.00
2018-03-11T01:00:34.322Z,16.62
2018-03-11T01:01:08.196Z,23.30
2018-03-11T01:01:42.501Z,19.08
2018-03-11T01:02:16.419Z,23.08
2018-03-11T01:02:50.421Z,20.92
2018-03-11T01:03:24.308Z,32.15
2018-03-11T01:03:59.400Z,39.63
2018-03-11T01:04:33.297Z,28.27
2018-03-11T01:05:07.208Z,24.33
2018-03-11T01:05:41.093Z,21.90
2018-03-11T01:06:14.956Z,19.40
2018-03-11T01:06:48.873Z,23.05
2018-03-11T01:07:23.127Z,16.10
2018-03-11T01:07:56.997Z,16.95
2018-03-11T01:08:31.091Z,19.70
2018-03-11T01:09:05.186Z,19.87
2018-03-11T01:09:39.244Z,22.80
2018-03-11T01:10:13.124Z,18.62
2018-03-11T01:10:47.007Z,18.40
2018-03-11T01:11:20.976Z,21.35
2018-03-11T01:11:54.873Z,27.13
2018-03-11T01:12:28.743Z,31.95
2018-03-11T01:13:02.599Z,22.58
2018-03-11T01:13:36.557Z,19.20
2018-03-11T01:14:11.168Z,28.92
2018-03-11T01:14:45.286Z,19.35
2018-03-11T01:15:19.177Z,24.55
2018-03-11T01:15:53.027Z,16.80
2018-03-11T01:16:26.885Z,35.40
2018-03-11T01:17:00.788Z,17.62
2018-03-11T01:17:34.649Z,21.00
2018-03-11T01:18:08.648Z,20.02
2018-03-11T01:18:42.723Z,22.83
2018-03-11T01:19:16.602Z,19.50
2018-03-11T01:19:50.483Z,26.48
2018-03-11T01:20:24.411Z,24.33
2018-03-11T01:20:58.285Z,20.75
2018-03-11T01:21:32.188Z,26.60
2018-03-11T01:22:06.189Z,25.75
2018-03-11T01:22:40.192Z,24.17
2018-03-11T01:23:14.068Z,25.40
2018-03-11T01:23:47.988Z,19.75
2018-03-11T01:24:21.882Z,45.65
2018-03-11T01:24:55.763Z,35.50
2018-03-11T01:25:29.645Z,21.80
2018-03-11T01:26:03.511Z,39.03
2018-03-11T01:26:37.398Z,42.30
2018-03-11T01:27:11.498Z,35.60
2018-03-11T01:27:45.373Z,21.83
2018-03-11T01:28:19.237Z,34.10
2018-03-11T01:28:53.348Z,31.33
2018-03-11T01:29:27.282Z,38.60
2018-03-11T01:30:01.179Z,20.60
2018-03-11T01:30:35.036Z,23.20
2018-03-11T01:31:08.932Z,23.02
2018-03-11T01:31:42.926Z,22.08
2018-03-11T01:32:16.860Z,24.17
2018-03-11T01:32:50.917Z,22.73
2018-03-11T01:33:24.828Z,19.48
2018-03-11T01:33:58.721Z,19.42
2018-03-11T01:34:32.581Z,22.27
2018-03-11T01:35:06.457Z,18.33
2018-03-11T01:35:40.350Z,19.55
2018-03-11T01:36:14.226Z,28.60
2018-03-11T01:36:48.328Z,22.80
2018-03-11T01:37:22.231Z,21.02
2018-03-11T01:37:56.124Z,18.75
2018-03-11T01:38:30.001Z,19.00
2018-03-11T01:39:03.858Z,19.73
2018-03-11T01:39:37.729Z,20.83
2018-03-11T01:40:11.586Z,18.17
2018-03-11T01:40:45.660Z,22.37
2018-03-11T01:41:19.524Z,17.83
2018-03-11T01:41:54.142Z,19.30
2018-03-11T01:42:28.244Z,19.00
2018-03-11T01:43:03.378Z,16.80
2018-03-11T01:43:37.332Z,21.10
2018-03-11T01:44:11.201Z,17.77
2018-03-11T01:44:45.052Z,18.73
2018-03-11T01:45:18.943Z,17.67
2018-03-11T01:45:52.831Z,18.33
2018-03-11T01:46:26.757Z,19.80
2018-03-11T01:47:00.720Z,17.73
2018-03-11T01:47:34.629Z,20.70
2018-03-11T01:48:08.559Z,17.05
2018-03-11T01:48:42.467Z,17.30
2018-03-11T01:49:16.357Z,23.08
2018-03-11T01:49:50.251Z,18.87
2018-03-11T01:50:24.137Z,18.65
2018-03-11T01:50:58.051Z,18.15
2018-03-11T01:51:31.946Z,21.67
2018-03-11T01:52:06.050Z,20.85
2018-03-11T01:52:45.755Z,20.45
2018-03-11T01:53:19.607Z,19.42
2018-03-11T01:53:53.475Z,18.25
2018-03-11T01:54:28.219Z,18.45
2018-03-11T01:55:02.080Z,17.58
2018-03-11T01:55:35.960Z,21.60
2018-03-11T01:56:09.951Z,21.92
2018-03-11T01:56:43.861Z,16.75
2018-03-11T01:57:17.744Z,19.92
2018-03-11T01:57:51.641Z,20.77
2018-03-11T01:58:25.526Z,19.02
2018-03-11T01:58:59.432Z,16.98
2018-03-11T01:59:33.310Z,20.98
2018-03-11T02:00:07.177Z,19.35
2018-03-11T02:00:41.112Z,16.92
2018-03-11T02:01:14.993Z,26.70
2018-03-11T02:01:48.908Z,20.98
2018-03-11T02:02:22.789Z,19.17
2018-03-11T02:02:56.732Z,19.08
2018-03-11T02:03:30.597Z,23.70
2018-03-11T02:04:04.456Z,17.62
2018-03-11T02:04:38.316Z,20.52
2018-03-11T02:05:12.348Z,19.52
2018-03-11T02:05:46.207Z,19.60
2018-03-11T02:06:20.080Z,21.45
2018-03-11T02:06:54.081Z,18.40
2018-03-11T02:07:27.984Z,17.65
2018-03-11T02:08:01.881Z,18.85
2018-03-11T02:08:35.762Z,18.50
2018-03-11T02:09:10.736Z,21.58
2018-03-11T02:09:44.826Z,19.05
2018-03-11T02:10:19.783Z,17.02
2018-03-11T02:10:53.708Z,18.95
2018-03-11T02:11:27.564Z,17.75
2018-03-11T02:12:01.470Z,17.67
2018-03-11T02:12:36.291Z,21.73
2018-03-11T02:13:10.169Z,20.08
2018-03-11T02:13:44.076Z,22.85
2018-03-11T02:14:17.954Z,20.50
2018-03-11T02:14:51.857Z,20.23
2018-03-11T02:15:25.729Z,19.02
2018-03-11T02:15:59.584Z,19.42
2018-03-11T02:16:33.455Z,20.65
2018-03-11T02:17:07.325Z,24.52
2018-03-11T02:17:41.223Z,21.20
2018-03-11T02:18:55.514Z,19.52
2018-03-11T02:19:29.400Z,22.73
2018-03-11T02:20:03.256Z,22.95
2018-03-11T02:20:37.289Z,19.12
2018-03-11T02:21:13.796Z,20.33
2018-03-11T02:21:47.659Z,22.42
2018-03-11T02:22:21.529Z,20.95
2018-03-11T02:22:55.388Z,18.83
2018-03-11T02:23:29.272Z,21.80
2018-03-11T02:24:03.135Z,22.60
2018-03-11T02:24:37.002Z,23.38
2018-03-11T02:25:10.881Z,20.05
2018-03-11T02:25:44.763Z,21.25
2018-03-11T02:26:18.633Z,20.15
2018-03-11T02:26:52.488Z,20.52
2018-03-11T02:27:26.381Z,22.85
2018-03-11T02:28:00.237Z,23.92
2018-03-11T02:28:34.109Z,21.37
2018-03-11T02:29:07.973Z,20.20
2018-03-11T02:29:41.833Z,27.10
2018-03-11T02:30:15.707Z,18.02
2018-03-11T02:30:49.577Z,18.92
2018-03-11T02:31:23.440Z,20.20
2018-03-11T02:31:57.295Z,22.87
2018-03-11T02:32:31.408Z,18.35
2018-03-11T02:33:05.273Z,23.70
2018-03-11T02:33:39.142Z,20.90
2018-03-11T02:34:13.016Z,22.02
2018-03-11T02:34:46.916Z,22.67
2018-03-11T02:35:20.807Z,21.42
2018-03-11T02:35:54.679Z,20.25
2018-03-11T02:36:28.555Z,21.70
2018-03-11T02:37:02.411Z,21.87
2018-03-11T02:37:36.290Z,19.00
2018-03-11T02:38:10.156Z,19.77
2018-03-11T02:38:44.045Z,20.12
2018-03-11T02:39:17.925Z,18.25
2018-03-11T02:39:51.776Z,20.10
2018-03-11T02:40:25.634Z,24.20
2018-03-11T02:40:59.523Z,19.48
2018-03-11T02:41:33.402Z,19.45
2018-03-11T02:42:07.332Z,17.80
2018-03-11T02:42:41.254Z,19.62
2018-03-11T02:43:15.124Z,22.05
2018-03-11T02:43:49.751Z,24.42
2018-03-11T02:44:23.627Z,18.00
2018-03-11T02:44:57.530Z,20.30
2018-03-11T02:45:31.838Z,20.23
2018-03-11T02:46:05.731Z,19.55
2018-03-11T02:46:39.592Z,18.33
2018-03-11T02:47:13.483Z,18.75
2018-03-11T02:47:47.352Z,21.25
2018-03-11T02:48:21.211Z,23.15
2018-03-11T02:48:55.095Z,21.73
2018-03-11T02:49:28.966Z,20.37
2018-03-11T02:50:02.844Z,23.62
2018-03-11T02:50:36.706Z,18.30
2018-03-11T02:51:10.575Z,19.50
2018-03-11T02:51:44.459Z,19.50
2018-03-11T02:52:18.313Z,20.10
2018-03-11T02:52:52.178Z,22.52
2018-03-11T02:53:26.056Z,18.70
2018-03-11T02:53:59.945Z,19.62
2018-03-11T02:54:33.808Z,21.50
2018-03-11T02:55:07.900Z,22.35
2018-03-11T02:55:42.249Z,18.33
2018-03-11T02:56:16.343Z,24.90
2018-03-11T02:56:50.217Z,19.80
2018-03-11T02:57:24.087Z,21.02
2018-03-11T02:57:58.975Z,19.48
2018-03-11T02:58:32.837Z,22.37
2018-03-11T02:59:06.760Z,20.77
2018-03-11T02:59:40.645Z,19.27
2018-03-11T03:00:14.501Z,19.35
2018-03-11T03:00:48.383Z,20.20
2018-03-11T03:01:22.255Z,20.27
2018-03-11T03:01:56.123Z,22.20
2018-03-11T03:02:30.005Z,25.80
2018-03-11T03:03:03.872Z,34.92
2018-03-11T03:03:39.181Z,24.85
2018-03-11T03:04:13.075Z,28.92
2018-03-11T03:04:47.141Z,23.33
2018-03-11T03:05:21.156Z,31.73
2018-03-11T03:05:55.040Z,28.67
2018-03-11T03:06:28.896Z,38.15
2018-03-11T03:07:02.779Z,21.77
2018-03-11T03:07:37.424Z,54.78
2018-03-11T03:08:13.252Z,39.38
2018-03-11T03:08:47.123Z,28.62
2018-03-11T03:09:20.989Z,21.77
2018-03-11T03:09:54.962Z,42.15
2018-03-11T03:10:28.827Z,18.75
2018-03-11T03:11:02.709Z,41.70
2018-03-11T03:11:36.579Z,28.90
2018-03-11T03:12:10.478Z,20.40
2018-03-11T03:12:44.404Z,28.67
2018-03-11T03:13:18.276Z,21.45
2018-03-11T03:13:52.145Z,19.85
2018-03-11T03:14:26.033Z,20.17
2018-03-11T03:14:59.879Z,20.58
2018-03-11T03:15:33.732Z,21.87
2018-03-11T03:16:07.605Z,20.73
2018-03-11T03:16:41.469Z,25.75
2018-03-11T03:17:15.355Z,26.58
2018-03-11T03:17:49.224Z,25.15
2018-03-11T03:18:23.101Z,23.50
2018-03-11T03:18:57.016Z,26.12
2018-03-11T03:19:30.889Z,22.75
2018-03-11T03:20:05.016Z,19.85
2018-03-11T03:20:39.861Z,23.73
2018-03-11T03:21:13.746Z,27.65
2018-03-11T03:21:47.629Z,27.83
2018-03-11T03:22:21.503Z,22.65
2018-03-11T03:22:55.371Z,21.62
2018-03-11T03:23:29.241Z,20.27
2018-03-11T03:24:03.106Z,24.12
2018-03-11T03:24:36.976Z,21.10
2018-03-11T03:25:10.915Z,22.83
2018-03-11T03:25:45.246Z,22.62
2018-03-11T03:26:19.121Z,21.58
2018-03-11T03:26:52.995Z,23.17
2018-03-11T03:27:26.851Z,24.83
2018-03-11T03:28:00.730Z,20.08
2018-03-11T03:28:34.580Z,23.35
2018-03-11T03:29:08.471Z,22.10
2018-03-11T03:29:42.370Z,23.45
2018-03-11T03:30:16.238Z,21.20
2018-03-11T03:30:50.159Z,23.20
2018-03-11T03:31:24.014Z,24.80
2018-03-11T03:31:57.875Z,24.92
2018-03-11T03:32:31.765Z,23.77
2018-03-11T03:33:05.640Z,21.05
2018-03-11T03:33:40.416Z,20.10
2018-03-11T03:34:14.486Z,20.17
2018-03-11T03:34:48.989Z,22.02
2018-03-11T03:35:23.258Z,23.58
2018-03-11T03:35:57.126Z,22.60
2018-03-11T03:36:30.991Z,21.10
2018-03-11T03:37:04.853Z,25.55
2018-03-11T03:37:38.715Z,24.10
2018-03-11T03:38:12.581Z,24.25
2018-03-11T03:38:46.530Z,20.25
2018-03-11T03:39:20.727Z,18.20
2018-03-11T03:39:56.793Z,21.12
2018-03-11T03:40:30.991Z,21.77
2018-03-11T03:41:04.869Z,23.95
2018-03-11T03:41:38.895Z,21.67
2018-03-11T03:42:12.786Z,24.12
2018-03-11T03:42:47.099Z,20.70
2018-03-11T03:43:21.016Z,20.73
2018-03-11T03:43:54.901Z,19.90
2018-03-11T03:44:28.750Z,23.83
2018-03-11T03:45:02.661Z,21.73
2018-03-11T03:45:36.539Z,22.92
2018-03-11T03:46:10.409Z,23.15
2018-03-11T03:46:44.282Z,20.73
2018-03-11T03:47:18.166Z,26.50
2018-03-11T03:47:52.036Z,20.67
2018-03-11T03:48:26.057Z,23.40
2018-03-11T03:48:59.949Z,24.10
2018-03-11T03:49:33.822Z,25.48
2018-03-11T03:50:07.708Z,21.65
2018-03-11T03:50:41.667Z,23.87
2018-03-11T03:51:15.558Z,20.33
2018-03-11T03:51:49.409Z,27.23
2018-03-11T03:52:23.299Z,24.30
2018-03-11T03:52:57.163Z,25.15
2018-03-11T03:53:31.029Z,25.48
2018-03-11T03:54:04.896Z,21.33
2018-03-11T03:54:38.766Z,24.37
2018-03-11T03:55:12.642Z,21.30
2018-03-11T03:55:46.547Z,24.27
2018-03-11T03:56:20.413Z,23.23
2018-03-11T03:56:54.286Z,23.25
2018-03-11T03:57:28.160Z,21.60
2018-03-11T03:58:02.035Z,23.98
2018-03-11T03:58:35.926Z,21.73
2018-03-11T03:59:09.800Z,23.50
2018-03-11T03:59:43.700Z,27.25
2018-03-11T04:00:17.592Z,23.48
2018-03-11T04:00:51.478Z,26.30
2018-03-11T04:01:25.352Z,24.90
2018-03-11T04:01:59.251Z,22.87
2018-03-11T04:02:33.139Z,21.90
2018-03-11T04:03:07.019Z,26.85
2018-03-11T04:03:40.877Z,25.30
2018-03-11T04:04:14.744Z,22.23
2018-03-11T04:04:48.628Z,23.42
2018-03-11T04:05:22.504Z,22.70
2018-03-11T04:05:56.376Z,27.35
2018-03-11T04:06:30.245Z,22.80
2018-03-11T04:07:04.099Z,26.80
2018-03-11T04:07:37.973Z,26.67
2018-03-11T04:08:11.848Z,24.00
2018-03-11T04:08:45.711Z,24.60
2018-03-11T04:09:19.569Z,27.13
2018-03-11T04:09:53.511Z,23.15
2018-03-11T04:10:27.392Z,23.10
2018-03-11T04:11:01.282Z,24.92
2018-03-11T04:11:35.156Z,24.95
2018-03-11T04:12:09.029Z,27.45
2018-03-11T04:12:42.896Z,22.92
2018-03-11T04:13:16.757Z,25.12
2018-03-11T04:13:50.692Z,23.77
2018-03-11T04:14:24.643Z,23.87
2018-03-11T04:14:58.552Z,27.13
2018-03-11T04:15:32.568Z,25.25
2018-03-11T04:16:06.658Z,24.65
2018-03-11T04:16:40.659Z,29.37
2018-03-11T04:17:14.614Z,24.45
2018-03-11T04:17:49.477Z,27.95
2018-03-11T04:18:23.398Z,25.45
2018-03-11T04:18:57.465Z,23.95
2018-03-11T04:19:31.720Z,25.08
2018-03-11T04:20:05.761Z,27.70
2018-03-11T04:20:39.648Z,25.48
2018-03-11T04:21:14.065Z,26.42
2018-03-11T04:21:48.077Z,24.12
2018-03-11T04:22:22.699Z,26.23
2018-03-11T04:22:56.556Z,25.37
2018-03-11T04:23:30.403Z,28.00
2018-03-11T04:24:04.258Z,25.85
2018-03-11T04:24:38.127Z,22.05
2018-03-11T04:25:11.986Z,26.58
2018-03-11T04:25:45.836Z,26.87
2018-03-11T04:26:19.744Z,26.95
2018-03-11T04:26:53.609Z,25.80
2018-03-11T04:27:27.472Z,28.80
2018-03-11T04:28:01.337Z,27.52
2018-03-11T04:28:35.207Z,25.60
2018-03-11T04:29:09.085Z,28.33
2018-03-11T04:29:42.975Z,25.77
2018-03-11T04:30:16.878Z,25.27
2018-03-11T04:30:50.781Z,23.30
2018-03-11T04:31:24.657Z,24.05
2018-03-11T04:31:58.516Z,26.67
2018-03-11T04:32:32.387Z,27.98
2018-03-11T04:33:06.243Z,27.70
2018-03-11T04:33:40.092Z,25.92
2018-03-11T04:34:13.980Z,24.73
2018-03-11T04:34:47.841Z,28.38
2018-03-11T04:35:21.717Z,26.42
2018-03-11T04:35:55.584Z,26.87
2018-03-11T04:36:29.473Z,28.30
2018-03-11T04:37:03.350Z,25.52
2018-03-11T04:37:37.219Z,26.23
2018-03-11T04:38:11.088Z,31.25
2018-03-11T04:38:45.005Z,29.45
2018-03-11T04:39:18.878Z,26.20
2018-03-11T04:39:52.733Z,28.70
2018-03-11T04:40:26.590Z,24.05
2018-03-11T04:41:00.468Z,26.98
2018-03-11T04:41:34.331Z,26.33
2018-03-11T04:42:08.212Z,32.95
2018-03-11T04:42:42.084Z,29.48
2018-03-11T04:43:15.952Z,25.85
2018-03-11T04:43:49.829Z,27.33
2018-03-11T04:44:23.704Z,28.40
2018-03-11T04:44:57.578Z,28.27
2018-03-11T04:45:31.463Z,26.10
2018-03-11T04:46:05.366Z,25.85
2018-03-11T04:46:39.222Z,27.48
2018-03-11T04:47:13.091Z,30.85
2018-03-11T04:47:46.952Z,26.45
2018-03-11T04:48:20.803Z,29.48
2018-03-11T04:48:54.674Z,26.73
2018-03-11T04:49:28.559Z,25.15
2018-03-11T04:50:02.428Z,26.83
2018-03-11T04:50:36.326Z,29.15
2018-03-11T04:51:10.216Z,28.20
2018-03-11T04:51:44.069Z,26.85
2018-03-11T04:52:17.925Z,27.25
2018-03-11T04:52:51.799Z,30.75
2018-03-11T04:53:26.526Z,28.92
2018-03-11T04:54:00.419Z,27.87
2018-03-11T04:54:34.298Z,25.05
2018-03-11T04:55:08.177Z,31.55
2018-03-11T04:55:42.034Z,27.08
2018-03-11T04:56:15.921Z,28.00
2018-03-11T04:56:49.792Z,26.12
2018-03-11T04:57:23.671Z,26.83
2018-03-11T04:57:57.532Z,30.73
2018-03-11T04:58:31.407Z,28.60
2018-03-11T04:59:05.266Z,26.52
2018-03-11T04:59:39.147Z,33.47
2018-03-11T05:00:13.014Z,27.15
2018-03-11T05:00:46.883Z,28.67
2018-03-11T05:01:20.767Z,31.90
2018-03-11T05:01:54.625Z,29.12
2018-03-11T05:02:28.517Z,26.40
2018-03-11T05:03:02.433Z,30.85
2018-03-11T05:03:36.289Z,30.45
2018-03-11T05:04:10.157Z,33.58
2018-03-11T05:04:44.008Z,26.55
2018-03-11T05:05:17.885Z,28.85
2018-03-11T05:05:51.741Z,27.80
2018-03-11T05:06:25.629Z,27.77
2018-03-11T05:06:59.481Z,30.48
2018-03-11T05:07:33.372Z,26.50
2018-03-11T05:08:07.258Z,27.20
2018-03-11T05:08:41.132Z,30.20
2018-03-11T05:09:14.994Z,28.12
2018-03-11T05:09:48.848Z,29.90
2018-03-11T05:10:22.703Z,30.48
2018-03-11T05:10:56.582Z,28.70
2018-03-11T05:11:30.467Z,30.12
2018-03-11T05:12:04.333Z,28.75
2018-03-11T05:12:38.213Z,28.48
2018-03-11T05:13:12.102Z,27.70
2018-03-11T05:13:46.002Z,29.45
2018-03-11T05:14:19.910Z,30.88
2018-03-11T05:14:53.827Z,27.85
2018-03-11T05:15:27.680Z,28.77
2018-03-11T05:16:01.578Z,31.08
2018-03-11T05:16:35.471Z,28.48
2018-03-11T05:17:09.373Z,33.65
2018-03-11T05:17:43.253Z,34.53
2018-03-11T05:18:17.132Z,29.63
2018-03-11T05:18:50.998Z,28.45
2018-03-11T05:19:24.874Z,30.35
2018-03-11T05:19:58.717Z,26.98
2018-03-11T05:20:32.568Z,29.05
2018-03-11T05:21:06.437Z,29.02
2018-03-11T05:21:40.345Z,28.60
2018-03-11T05:22:14.216Z,31.33
2018-03-11T05:22:48.110Z,26.67
2018-03-11T05:23:21.985Z,30.37
2018-03-11T05:23:55.833Z,30.52
2018-03-11T05:24:29.701Z,33.53
2018-03-11T05:25:03.580Z,29.63
2018-03-11T05:25:37.441Z,32.38
2018-03-11T05:26:11.304Z,27.70
2018-03-11T05:26:45.199Z,31.42
2018-03-11T05:27:19.106Z,28.10
2018-03-11T05:27:52.977Z,27.15
2018-03-11T05:28:26.846Z,28.58
2018-03-11T05:29:00.711Z,29.05
2018-03-11T05:29:34.578Z,32.58
2018-03-11T05:30:08.449Z,32.80
2018-03-11T05:30:42.322Z,29.27
2018-03-11T05:31:16.192Z,30.10
2018-03-11T05:31:50.072Z,28.20
2018-03-11T05:32:23.985Z,28.35
2018-03-11T05:32:57.842Z,29.55
2018-03-11T05:33:31.708Z,27.75
2018-03-11T05:34:05.572Z,28.80
2018-03-11T05:34:39.437Z,28.92
2018-03-11T05:35:13.298Z,29.12
2018-03-11T05:35:47.153Z,30.25
2018-03-11T05:36:21.030Z,28.02
2018-03-11T05:36:54.900Z,30.15
2018-03-11T05:37:28.774Z,31.87
2018-03-11T05:38:02.652Z,28.90
2018-03-11T05:38:36.525Z,26.50
2018-03-11T05:39:10.404Z,30.77
2018-03-11T05:39:44.273Z,28.83
2018-03-11T05:40:18.138Z,27.65
2018-03-11T05:40:52.025Z,27.05
2018-03-11T05:41:25.898Z,29.20
2018-03-11T05:41:59.781Z,29.30
2018-03-11T05:42:33.645Z,26.95
2018-03-11T05:43:07.531Z,30.88
2018-03-11T05:43:41.390Z,30.95
2018-03-11T05:44:15.245Z,27.30
2018-03-11T05:44:49.100Z,23.67
2018-03-11T05:45:22.973Z,27.73
2018-03-11T05:45:56.853Z,30.83
2018-03-11T05:46:30.728Z,30.30
2018-03-11T05:47:04.610Z,28.50
2018-03-11T05:47:38.466Z,28.15
2018-03-11T05:48:12.338Z,28.67
2018-03-11T05:48:46.222Z,26.73
2018-03-11T05:49:20.081Z,28.62
2018-03-11T05:49:53.944Z,25.88
2018-03-11T05:50:27.821Z,25.60
2018-03-11T05:51:01.683Z,29.87
2018-03-11T05:51:35.573Z,28.00
2018-03-11T05:52:09.495Z,28.38
2018-03-11T05:52:43.358Z,29.92
2018-03-11T05:53:17.208Z,29.05
2018-03-11T05:53:51.076Z,27.02
2018-03-11T05:54:24.938Z,27.00
2018-03-11T05:54:58.809Z,27.73
2018-03-11T05:55:32.672Z,29.83
2018-03-11T05:56:06.534Z,28.25
2018-03-11T05:56:40.424Z,28.85
2018-03-11T05:57:14.301Z,30.05
2018-03-11T05:57:48.223Z,30.05
2018-03-11T05:58:22.081Z,32.72
2018-03-11T05:58:55.945Z,30.30
2018-03-11T05:59:29.821Z,30.33
2018-03-11T06:00:03.688Z,27.33
2018-03-11T06:00:37.569Z,28.20
2018-03-11T06:01:11.446Z,27.58
2018-03-11T06:01:45.316Z,27.33
2018-03-11T06:02:19.190Z,27.42
2018-03-11T06:02:53.060Z,29.75
2018-03-11T06:03:26.926Z,29.33
2018-03-11T06:04:00.801Z,30.12
2018-03-11T06:04:34.668Z,29.05
2018-03-11T06:05:08.551Z,27.30
2018-03-11T06:05:42.417Z,24.70
2018-03-11T06:06:16.265Z,25.60
2018-03-11T06:06:50.155Z,25.65
2018-03-11T06:07:24.028Z,28.77
2018-03-11T06:07:57.902Z,25.55
2018-03-11T06:08:31.775Z,30.33
2018-03-11T06:09:06.457Z,28.38
2018-03-11T06:09:41.125Z,27.95
2018-03-11T06:10:14.997Z,27.50
2018-03-11T06:10:49.264Z,24.80
2018-03-11T06:11:23.142Z,29.90
2018-03-11T06:11:57.273Z,31.62
2018-03-11T06:12:31.162Z,27.80
2018-03-11T06:13:05.239Z,27.70
2018-03-11T06:13:39.789Z,26.85
2018-03-11T06:14:13.667Z,27.35
2018-03-11T06:14:47.566Z,26.10
2018-03-11T06:15:21.433Z,27.25
2018-03-11T06:15:55.292Z,26.60
2018-03-11T06:16:29.428Z,29.20
2018-03-11T06:17:03.429Z,26.20
2018-03-11T06:17:37.342Z,26.48
2018-03-11T06:18:11.220Z,27.13
2018-03-11T06:18:45.082Z,27.33
2018-03-11T06:19:18.961Z,25.98
2018-03-11T06:19:52.832Z,25.55
2018-03-11T06:20:26.711Z,25.50
2018-03-11T06:21:00.600Z,27.85
2018-03-11T06:21:34.485Z,27.45
2018-03-11T06:22:08.350Z,27.48
2018-03-11T06:22:42.230Z,25.70
2018-03-11T06:23:16.093Z,24.33
2018-03-11T06:23:49.953Z,26.37
2018-03-11T06:24:23.834Z,27.17
2018-03-11T06:24:57.726Z,28.05
2018-03-11T06:25:31.635Z,23.77
2018-03-11T06:26:05.589Z,27.40
2018-03-11T06:26:39.466Z,21.85
2018-03-11T06:27:13.346Z,26.83
2018-03-11T06:27:47.221Z,28.70
2018-03-11T06:28:21.091Z,25.83
2018-03-11T06:28:54.977Z,25.35
2018-03-11T06:29:28.843Z,30.33
2018-03-11T06:30:02.714Z,27.15
2018-03-11T06:30:36.599Z,27.85
2018-03-11T06:31:10.465Z,30.73
2018-03-11T06:31:44.338Z,28.30
2018-03-11T06:32:18.209Z,26.00
2018-03-11T06:32:52.082Z,24.20
2018-03-11T06:33:25.964Z,28.30
2018-03-11T06:34:00.590Z,27.00
2018-03-11T06:34:34.498Z,28.98
2018-03-11T06:35:08.356Z,27.20
2018-03-11T06:35:42.881Z,30.35
2018-03-11T06:36:16.746Z,25.92
2018-03-11T06:36:50.601Z,26.33
2018-03-11T06:37:25.328Z,29.80
2018-03-11T06:37:59.233Z,25.00
2018-03-11T06:38:33.164Z,24.80
2018-03-11T06:39:07.077Z,28.33
2018-03-11T06:39:40.987Z,25.25
2018-03-11T06:40:14.853Z,24.35
2018-03-11T06:40:48.720Z,28.50
2018-03-11T06:41:22.673Z,25.98
2018-03-11T06:41:56.530Z,26.80
2018-03-11T06:42:30.407Z,26.58
2018-03-11T06:43:04.282Z,25.85
2018-03-11T06:43:38.148Z,32.15
2018-03-11T06:44:12.034Z,29.92
2018-03-11T06:44:45.900Z,26.25
2018-03-11T06:45:19.798Z,26.27
2018-03-11T06:45:53.648Z,22.70
2018-03-11T06:46:27.517Z,26.45
2018-03-11T06:47:02.317Z,24.58
2018-03-11T06:47:36.202Z,27.17
2018-03-11T06:48:10.108Z,24.80
2018-03-11T06:48:43.977Z,22.13
2018-03-11T06:49:17.857Z,26.05
2018-03-11T06:49:52.445Z,31.62
2018-03-11T06:50:26.330Z,28.02
2018-03-11T06:51:00.189Z,28.00
2018-03-11T06:51:34.072Z,27.98
2018-03-11T06:52:08.933Z,26.23
2018-03-11T06:52:42.776Z,23.75
2018-03-11T06:53:16.648Z,26.80
2018-03-11T06:53:50.615Z,25.17
2018-03-11T06:54:24.498Z,24.35
2018-03-11T06:55:00.097Z,25.25
2018-03-11T06:55:33.991Z,24.25
2018-03-11T06:56:07.880Z,26.08
2018-03-11T06:56:42.347Z,25.48
2018-03-11T06:57:16.209Z,24.50
2018-03-11T06:57:50.082Z,23.75
2018-03-11T06:58:23.992Z,25.42
2018-03-11T06:58:57.874Z,25.52
2018-03-11T06:59:31.749Z,27.10
2018-03-11T07:00:06.498Z,28.38
2018-03-11T07:00:40.375Z,26.92
2018-03-11T07:01:14.237Z,25.73
2018-03-11T07:01:48.120Z,26.23
2018-03-11T07:02:21.989Z,21.98
2018-03-11T07:02:56.774Z,24.67
2018-03-11T07:03:30.938Z,25.23
2018-03-11T07:04:04.936Z,24.00
2018-03-11T07:04:38.807Z,25.67
2018-03-11T07:05:12.682Z,25.60
2018-03-11T07:05:46.535Z,27.85
2018-03-11T07:06:20.411Z,24.60
2018-03-11T07:06:54.275Z,24.75
2018-03-11T07:07:28.134Z,23.92
2018-03-11T07:08:01.993Z,25.52
2018-03-11T07:08:35.860Z,24.70
2018-03-11T07:09:09.839Z,22.62
2018-03-11T07:09:43.718Z,24.75
2018-03-11T07:10:17.609Z,24.90
2018-03-11T07:10:51.639Z,23.62
2018-03-11T07:11:25.520Z,23.08
2018-03-11T07:11:59.393Z,24.08
2018-03-11T07:12:33.253Z,22.95
2018-03-11T07:13:07.103Z,23.92
2018-03-11T07:13:41.036Z,23.08
2018-03-11T07:14:14.909Z,24.25
2018-03-11T07:14:48.765Z,25.73
2018-03-11T07:15:22.938Z,22.77
2018-03-11T07:15:56.810Z,25.12
2018-03-11T07:16:30.769Z,25.23
2018-03-11T07:17:04.637Z,25.95
2018-03-11T07:17:38.597Z,23.12
2018-03-11T07:18:12.561Z,24.10